Time;durP1;ratioP1;P1;durP2;ratioP2;P2;SDS_P1;SDS_P2;PMS_P1;PMS_P2;Temp;Humidity;BMP_temperature;BMP_pressure;BME280_temperature;BME280_humidity;BME280_pressure;Samples;Min_cycle;Max_cycle;Signal;HPM_P1;HPM_P2
2021/05/06 00:02:38;;;;;;;12.32;2.78;;;11.80;99.90;;;;;;5050944;28;20323;-67
2021/05/06 00:06:32;;;;;;;13.55;3.17;;;11.80;99.90;;;;;;5051204;28;20387;-68
2021/05/06 00:10:03;;;;;;;10.35;3.45;;;11.80;99.90;;;;;;5050869;28;20407;-68
2021/05/06 00:30:07;;;;;;;10.07;3.22;;;12.00;99.90;;;;;;5049815;28;20092;-68
2021/05/06 00:33:11;;;;;;;14.90;2.97;;;11.90;99.90;;;;;;5050242;28;20510;-68
2021/05/06 00:36:15;;;;;;;13.43;3.47;;;11.80;99.90;;;;;;5050122;28;20052;-68
2021/05/06 00:39:33;;;;;;;9.68;2.92;;;11.90;99.90;;;;;;5049195;28;20430;-68
2021/05/06 00:42:46;;;;;;;10.73;2.80;;;11.90;99.90;;;;;;5050440;28;20034;-68
2021/05/06 01:06:15;;;;;;;10.18;2.67;;;11.80;99.90;;;;;;5048867;28;20044;-68
2021/05/06 01:09:22;;;;;;;9.75;2.97;;;11.80;99.90;;;;;;5037438;28;20407;-68
2021/05/06 01:12:27;;;;;;;11.02;3.00;;;11.80;99.90;;;;;;5049017;28;20056;-67
2021/05/06 01:15:31;;;;;;;15.30;2.83;;;11.60;99.90;;;;;;5048195;28;20055;-68
2021/05/06 01:18:36;;;;;;;9.90;3.00;;;11.40;99.90;;;;;;5050469;28;20044;-68
2021/05/06 01:21:40;;;;;;;9.77;3.20;;;11.50;99.90;;;;;;5048993;28;20044;-68
2021/05/06 01:24:49;;;;;;;7.25;3.25;;;11.80;99.90;;;;;;5049815;28;20052;-68
2021/05/06 01:28:01;;;;;;;12.27;2.90;;;11.60;99.90;;;;;;5049976;28;20511;-68
2021/05/06 01:31:29;;;;;;;8.33;2.77;;;11.40;99.90;;;;;;5047948;28;20056;-68
2021/05/06 01:34:30;;;;;;;11.55;3.40;;;11.20;99.90;;;;;;5049972;28;20048;-68
2021/05/06 01:40:58;;;;;;;14.95;2.38;;;11.20;99.90;;;;;;5048448;28;20396;-68
2021/05/06 01:51:08;;;;;;;6.10;2.58;;;11.50;99.90;;;;;;5052545;28;20043;-68
2021/05/06 02:01:07;;;;;;;10.95;4.53;;;11.40;99.90;;;;;;5051564;28;20048;-68
2021/05/06 02:04:12;;;;;;;13.48;3.80;;;10.70;99.90;;;;;;5052747;28;20056;-67
2021/05/06 02:07:17;;;;;;;9.38;3.97;;;10.50;99.90;;;;;;5053758;28;20047;-68
2021/05/06 02:10:33;;;;;;;12.13;2.90;;;10.50;99.90;;;;;;5052422;28;20036;-67
2021/05/06 02:13:40;;;;;;;13.73;4.05;;;10.70;99.90;;;;;;5053982;28;20051;-67
2021/05/06 02:16:47;;;;;;;15.93;4.15;;;10.50;99.90;;;;;;5052104;28;20407;-68
2021/05/06 02:19:51;;;;;;;12.10;3.47;;;10.30;99.90;;;;;;5052936;28;20425;-68
2021/05/06 02:22:57;;;;;;;12.25;3.35;;;10.30;99.90;;;;;;5053800;28;20047;-68
2021/05/06 02:26:01;;;;;;;13.35;3.85;;;10.30;99.90;;;;;;5053020;28;20416;-67
2021/05/06 02:29:05;;;;;;;14.30;5.13;;;10.10;99.90;;;;;;5042424;28;20400;-68
2021/05/06 02:32:09;;;;;;;13.60;4.55;;;9.90;99.90;;;;;;5041710;28;20064;-68
2021/05/06 02:35:14;;;;;;;12.50;4.78;;;9.90;99.90;;;;;;5052959;28;20056;-67
2021/05/06 02:38:18;;;;;;;12.32;5.18;;;10.00;99.90;;;;;;5033163;28;20076;-68
2021/05/06 02:41:22;;;;;;;14.27;5.47;;;9.70;99.90;;;;;;5032354;28;20044;-67
2021/05/06 02:44:27;;;;;;;12.93;5.22;;;9.60;99.90;;;;;;5032686;28;20048;-68
2021/05/06 02:47:31;;;;;;;11.25;4.95;;;9.50;99.90;;;;;;5052389;28;20060;-68
2021/05/06 02:50:35;;;;;;;13.38;4.90;;;9.60;99.90;;;;;;5042843;28;20049;-69
2021/05/06 02:53:47;;;;;;;8.63;3.95;;;9.60;99.90;;;;;;5035818;28;20040;-69
2021/05/06 02:57:04;;;;;;;13.48;5.18;;;9.60;99.90;;;;;;5051739;28;20432;-68
2021/05/06 03:03:42;;;;;;;12.88;5.72;;;9.60;99.90;;;;;;5032272;28;20044;-68
2021/05/06 03:07:07;;;;;;;12.88;4.72;;;9.20;99.90;;;;;;5038738;28;20475;-68
2021/05/06 03:23:27;;;;;;;10.85;3.15;;;9.80;99.90;;;;;;5051953;28;20039;-68
2021/05/06 03:26:32;;;;;;;18.83;3.92;;;10.00;99.90;;;;;;5051452;28;20052;-65
2021/05/06 03:29:42;;;;;;;9.23;2.40;;;10.00;99.90;;;;;;5050927;28;20502;-67
2021/05/06 03:47:22;;;;;;;17.67;3.28;;;11.30;99.90;;;;;;5050762;28;19919;-69
2021/05/06 04:37:06;;;;;;;;;;;12.30;99.90;;;;;;5041785;28;20399;-68
2021/05/06 04:44:17;;;;;;;10.43;2.88;;;11.00;99.90;;;;;;5040148;28;20044;-68
2021/05/06 05:07:14;;;;;;;16.15;3.03;;;12.30;99.90;;;;;;5048406;28;20400;-68
2021/05/06 05:10:42;;;;;;;9.52;2.28;;;12.30;99.90;;;;;;5034814;28;20056;-68
2021/05/06 05:23:42;;;;;;;11.82;2.40;;;12.80;99.90;;;;;;5049896;28;20059;-68
2021/05/06 05:26:47;;;;;;;12.02;2.17;;;13.00;99.90;;;;;;5043796;28;20056;-68
2021/05/06 05:29:52;;;;;;;18.42;3.47;;;13.20;99.90;;;;;;5044763;28;20060;-69
2021/05/06 05:32:57;;;;;;;15.52;3.03;;;13.40;99.90;;;;;;5034984;28;20052;-68
2021/05/06 05:39:24;;;;;;;13.90;2.25;;;13.60;99.90;;;;;;5049483;28;20382;-69
2021/05/06 05:55:47;;;;;;;13.38;2.95;;;14.20;99.90;;;;;;5040179;28;20037;-68
2021/05/06 05:58:51;;;;;;;10.13;2.72;;;14.30;99.90;;;;;;5035234;28;20048;-69
2021/05/06 06:01:55;;;;;;;11.27;2.20;;;14.50;99.90;;;;;;5027415;28;20064;-68
2021/05/06 06:04:59;;;;;;;16.30;4.43;;;14.80;99.90;;;;;;5041551;28;20040;-69
2021/05/06 06:08:03;;;;;;;18.10;3.38;;;15.50;99.90;;;;;;5046188;28;20040;-69
2021/05/06 06:11:08;;;;;;;19.98;3.00;;;16.50;99.90;;;;;;5039940;28;20052;-69
2021/05/06 06:14:15;;;;;;;8.48;2.40;;;17.60;99.90;;;;;;5043418;28;20454;-68
2021/05/06 06:17:20;;;;;;;16.85;3.13;;;18.70;99.90;;;;;;5041241;28;20048;-69
2021/05/06 06:20:27;;;;;;;12.70;3.10;;;19.50;99.90;;;;;;5029853;28;20040;-69
2021/05/06 06:23:31;;;;;;;12.55;2.67;;;21.50;99.90;;;;;;5042301;28;20036;-69
2021/05/06 06:26:35;;;;;;;11.48;2.58;;;22.30;99.90;;;;;;5046446;28;20052;-68
2021/05/06 06:29:39;;;;;;;11.35;2.08;;;23.30;99.20;;;;;;5043854;28;20064;-68
2021/05/06 06:32:45;;;;;;;10.23;2.22;;;24.10;96.90;;;;;;5047112;28;20107;-68
2021/05/06 06:35:50;;;;;;;17.92;2.38;;;23.70;96.40;;;;;;5047301;28;20051;-68
2021/05/06 06:38:54;;;;;;;10.98;3.13;;;22.40;97.00;;;;;;5047984;28;20036;-68
2021/05/06 06:41:58;;;;;;;12.40;2.17;;;22.30;98.00;;;;;;5048297;28;20048;-68
2021/05/06 06:45:04;;;;;;;12.70;2.33;;;22.90;96.90;;;;;;5050279;28;20363;-68
2021/05/06 06:48:11;;;;;;;8.40;2.13;;;24.00;96.00;;;;;;5040830;28;20064;-68
2021/05/06 06:51:15;;;;;;;12.50;2.40;;;25.60;94.30;;;;;;5045716;28;20510;-68
2021/05/06 06:54:19;;;;;;;11.57;2.58;;;26.60;92.20;;;;;;5039250;28;20039;-68
2021/05/06 06:57:25;;;;;;;9.55;2.47;;;26.60;91.00;;;;;;5049182;28;20048;-68
2021/05/06 07:00:29;;;;;;;8.30;2.55;;;25.30;91.50;;;;;;5041803;28;20510;-68
2021/05/06 07:03:35;;;;;;;18.13;2.55;;;25.30;92.60;;;;;;5046143;28;20416;-68
2021/05/06 07:06:39;;;;;;;12.60;2.72;;;26.30;91.30;;;;;;5048016;28;20296;-69
2021/05/06 07:09:43;;;;;;;21.00;2.88;;;27.00;90.50;;;;;;5050942;28;20064;-68
2021/05/06 07:12:47;;;;;;;8.02;2.50;;;27.40;89.40;;;;;;5051564;28;20052;-69
2021/05/06 07:15:56;;;;;;;8.05;2.60;;;26.60;88.20;;;;;;5043009;28;20036;-68
2021/05/06 07:19:00;;;;;;;10.43;2.95;;;25.10;90.60;;;;;;5042597;28;20506;-69
2021/05/06 07:22:04;;;;;;;10.50;2.42;;;24.10;91.90;;;;;;5039774;28;20400;-68
2021/05/06 07:25:12;;;;;;;7.82;2.40;;;23.20;92.10;;;;;;5051271;28;20048;-68
2021/05/06 07:28:28;;;;;;;9.57;2.90;;;22.60;92.90;;;;;;5051337;28;20052;-68
2021/05/06 07:31:33;;;;;;;15.40;3.15;;;22.30;94.10;;;;;;5046597;28;20597;-67
2021/05/06 07:34:37;;;;;;;15.35;3.03;;;22.30;94.50;;;;;;5051741;28;20048;-67
2021/05/06 07:37:41;;;;;;;13.80;2.83;;;22.50;93.70;;;;;;5041444;28;20047;-67
2021/05/06 07:40:45;;;;;;;13.48;3.05;;;22.90;94.10;;;;;;5044845;28;20052;-67
2021/05/06 07:43:50;;;;;;;13.68;3.17;;;24.90;92.80;;;;;;5050274;28;20040;-67
2021/05/06 07:47:08;;;;;;;10.45;3.45;;;26.20;91.20;;;;;;5051124;28;20514;-65
2021/05/06 07:50:13;;;;;;;11.48;3.15;;;27.40;90.50;;;;;;5050390;28;20059;-67
2021/05/06 07:53:24;;;;;;;12.85;2.70;;;27.50;89.20;;;;;;5051469;28;20340;-66
2021/05/06 07:56:28;;;;;;;15.57;3.20;;;27.30;88.90;;;;;;5041618;28;20047;-67
2021/05/06 07:59:32;;;;;;;8.07;2.33;;;28.10;87.80;;;;;;5050056;28;20040;-66
2021/05/06 08:02:36;;;;;;;12.77;2.97;;;28.40;87.40;;;;;;5049933;28;20036;-67
2021/05/06 08:05:40;;;;;;;11.25;2.97;;;29.00;85.60;;;;;;5041723;28;20319;-67
2021/05/06 08:08:44;;;;;;;13.55;2.83;;;26.30;83.60;;;;;;5051433;28;20044;-67
2021/05/06 08:11:51;;;;;;;10.75;2.55;;;26.30;87.40;;;;;;5050489;28;20450;-66
2021/05/06 08:14:55;;;;;;;11.18;2.53;;;27.20;87.40;;;;;;5050121;28;20043;-66
2021/05/06 08:17:59;;;;;;;9.77;2.63;;;28.00;86.20;;;;;;5050209;28;20044;-66
2021/05/06 08:21:03;;;;;;;12.25;2.53;;;27.90;83.50;;;;;;5050596;28;20047;-65
2021/05/06 08:24:08;;;;;;;8.32;2.30;;;29.10;84.60;;;;;;5050163;28;20055;-66
2021/05/06 08:27:13;;;;;;;7.50;2.80;;;30.80;82.40;;;;;;5044800;28;20053;-67
2021/05/06 08:30:17;;;;;;;9.30;2.95;;;31.30;78.50;;;;;;5044304;28;20056;-66
2021/05/06 08:33:22;;;;;;;9.73;2.72;;;32.60;77.60;;;;;;5050770;28;20055;-66
2021/05/06 08:36:26;;;;;;;10.60;3.00;;;32.50;73.90;;;;;;5050750;28;20040;-67
2021/05/06 08:39:30;;;;;;;13.43;3.63;;;32.90;74.20;;;;;;5051557;28;20451;-66
2021/05/06 08:42:35;;;;;;;9.13;2.38;;;33.00;71.80;;;;;;5031461;28;20553;-66
2021/05/06 08:45:46;;;;;;;16.48;3.08;;;32.80;69.90;;;;;;5035919;28;20055;-67
2021/05/06 08:48:51;;;;;;;11.35;2.58;;;31.30;72.20;;;;;;5046375;28;20490;-66
2021/05/06 08:51:55;;;;;;;9.05;2.85;;;29.00;73.90;;;;;;5048779;28;20043;-66
2021/05/06 08:54:59;;;;;;;15.98;3.13;;;29.70;74.00;;;;;;5044261;28;20107;-67
2021/05/06 08:58:03;;;;;;;9.43;2.83;;;28.80;73.00;;;;;;5048500;28;20498;-67
2021/05/06 09:01:07;;;;;;;12.57;2.97;;;25.50;74.70;;;;;;5048524;28;20044;-66
2021/05/06 09:04:11;;;;;;;13.63;2.97;;;24.10;77.50;;;;;;5051455;28;20075;-66
2021/05/06 09:07:15;;;;;;;11.93;2.85;;;25.10;80.40;;;;;;5051077;28;20047;-67
2021/05/06 09:10:37;;;;;;;7.97;2.17;;;27.60;77.10;;;;;;5043306;28;20112;-66
2021/05/06 09:13:42;;;;;;;14.05;3.08;;;27.10;77.20;;;;;;5051202;28;20060;-66
2021/05/06 09:16:47;;;;;;;11.25;2.20;;;27.10;76.60;;;;;;5046903;28;20044;-67
2021/05/06 09:20:07;;;;;;;11.38;2.20;;;25.50;77.00;;;;;;5049969;28;20044;-65
2021/05/06 09:23:11;;;;;;;8.07;1.73;;;23.90;78.40;;;;;;5029606;28;20041;-65
2021/05/06 09:26:16;;;;;;;13.80;2.45;;;24.00;81.10;;;;;;5048151;28;20104;-64
2021/05/06 09:29:45;;;;;;;6.75;2.10;;;25.10;77.20;;;;;;5048600;28;20036;-66
2021/05/06 09:32:58;;;;;;;8.95;2.17;;;27.70;75.20;;;;;;5042770;28;20047;-66
2021/05/06 09:36:19;;;;;;;7.40;2.45;;;27.30;74.30;;;;;;5030811;28;20053;-66
2021/05/06 09:39:27;;;;;;;13.77;2.22;;;26.10;76.00;;;;;;5041297;28;20052;-66
2021/05/06 09:42:39;;;;;;;21.60;3.22;;;24.70;77.20;;;;;;5050420;28;20376;-66
2021/05/06 09:45:44;;;;;;;11.68;2.03;;;22.70;80.00;;;;;;5035317;28;20044;-64
2021/05/06 09:49:03;;;;;;;12.68;2.17;;;21.30;83.10;;;;;;5049943;28;20052;-66
2021/05/06 09:52:08;;;;;;;13.50;1.98;;;21.50;84.50;;;;;;5049332;28;20044;-66
2021/05/06 09:55:14;;;;;;;11.90;2.58;;;22.30;83.50;;;;;;5030719;28;20045;-66
2021/05/06 09:58:22;;;;;;;12.60;2.30;;;23.90;81.40;;;;;;5048486;28;20040;-67
2021/05/06 10:01:33;;;;;;;7.28;1.80;;;25.60;78.00;;;;;;5048368;28;20032;-67
2021/05/06 10:04:40;;;;;;;7.03;2.00;;;27.20;78.00;;;;;;5048718;28;20511;-67
2021/05/06 10:07:53;;;;;;;6.40;1.80;;;26.80;76.60;;;;;;5051403;28;20044;-66
2021/05/06 10:11:13;;;;;;;8.02;2.20;;;26.10;74.80;;;;;;5052833;28;20051;-67
2021/05/06 10:14:17;;;;;;;10.35;2.15;;;25.50;78.30;;;;;;5052501;28;20055;-68
2021/05/06 10:17:24;;;;;;;6.50;1.95;;;26.60;76.20;;;;;;5038798;28;20048;-66
2021/05/06 10:20:29;;;;;;;5.30;1.60;;;25.60;73.70;;;;;;5053767;28;20494;-66
2021/05/06 10:23:34;;;;;;;5.65;1.60;;;24.80;75.90;;;;;;5054474;28;20403;-65
2021/05/06 10:26:39;;;;;;;7.72;2.00;;;25.30;75.60;;;;;;5035941;28;20056;-66
2021/05/06 10:29:43;;;;;;;7.47;1.60;;;26.50;74.70;;;;;;5044434;28;20044;-65
2021/05/06 10:32:48;;;;;;;8.18;1.40;;;27.90;74.20;;;;;;5035467;28;20400;-67
2021/05/06 10:35:52;;;;;;;7.10;1.85;;;30.30;72.30;;;;;;5033391;28;20109;-65
2021/05/06 10:38:57;;;;;;;7.32;1.63;;;31.90;69.70;;;;;;5033625;28;20052;-67
2021/05/06 10:42:27;;;;;;;6.57;1.75;;;31.20;67.20;;;;;;5051399;28;20044;-66
2021/05/06 10:45:33;;;;;;;8.02;1.70;;;29.30;68.90;;;;;;5046043;28;20673;-67
2021/05/06 10:48:59;;;;;;;6.30;1.75;;;28.40;70.80;;;;;;5038270;28;20720;-67
2021/05/06 10:52:05;;;;;;;9.00;1.67;;;27.70;73.20;;;;;;5046195;28;20651;-66
2021/05/06 10:55:12;;;;;;;7.30;1.80;;;30.40;69.60;;;;;;5037578;28;20045;-66
2021/05/06 10:58:30;;;;;;;4.18;1.63;;;30.90;67.80;;;;;;5051803;28;20068;-66
2021/05/06 11:01:40;;;;;;;5.93;1.48;;;29.60;67.30;;;;;;5048730;28;20491;-68
2021/05/06 11:04:44;;;;;;;10.63;1.38;;;29.50;67.50;;;;;;5032387;28;20045;-65
2021/05/06 11:08:04;;;;;;;4.63;1.60;;;31.00;65.20;;;;;;5047303;28;20040;-64
2021/05/06 11:11:08;;;;;;;5.07;1.17;;;32.50;62.20;;;;;;5049347;28;20084;-65
2021/05/06 11:14:12;;;;;;;6.03;1.10;;;30.30;60.40;;;;;;5043520;28;20486;-65
2021/05/06 11:17:19;;;;;;;4.30;1.10;;;29.60;61.90;;;;;;5039200;28;20070;-66
2021/05/06 11:20:27;;;;;;;4.22;0.98;;;29.70;62.50;;;;;;5045542;28;20056;-67
2021/05/06 11:23:33;;;;;;;6.50;1.40;;;30.90;62.10;;;;;;5043573;28;20379;-65
2021/05/06 11:27:02;;;;;;;7.30;1.40;;;31.60;61.60;;;;;;5049214;28;20556;-66
2021/05/06 11:30:37;;;;;;;3.38;1.00;;;32.20;59.50;;;;;;5050315;28;20499;-66
2021/05/06 11:33:41;;;;;;;7.07;1.30;;;32.30;57.90;;;;;;5052470;28;20052;-67
2021/05/06 11:36:45;;;;;;;4.78;1.33;;;33.40;59.20;;;;;;5052657;28;20040;-67
2021/05/06 11:40:01;;;;;;;4.60;1.35;;;34.50;57.10;;;;;;5039812;28;20056;-68
2021/05/06 11:43:05;;;;;;;5.68;2.25;;;35.30;59.20;;;;;;5032337;28;20056;-65
2021/05/06 11:46:13;;;;;;;5.90;1.50;;;34.00;56.10;;;;;;5030853;28;20048;-65
2021/05/06 11:49:18;;;;;;;4.90;1.40;;;32.80;57.00;;;;;;5032132;28;20053;-66
2021/05/06 11:52:33;;;;;;;6.55;1.60;;;33.50;58.20;;;;;;5038410;28;20051;-65
2021/05/06 11:55:43;;;;;;;4.22;1.85;;;34.20;57.80;;;;;;5047595;28;20060;-66
2021/05/06 11:58:51;;;;;;;5.88;1.25;;;35.00;57.00;;;;;;5048829;28;20051;-67
2021/05/06 12:01:58;;;;;;;4.95;1.60;;;35.60;57.30;;;;;;5039001;28;20045;-66
2021/05/06 12:05:04;;;;;;;7.50;1.50;;;34.60;55.10;;;;;;5039462;28;20641;-66
2021/05/06 12:08:08;;;;;;;5.28;1.08;;;33.50;56.50;;;;;;5045827;28;20052;-65
2021/05/06 12:11:14;;;;;;;13.20;1.52;;;29.90;60.30;;;;;;5050495;28;20399;-67
2021/05/06 12:14:32;;;;;;;8.70;1.50;;;28.10;64.00;;;;;;5048922;28;20044;-67
2021/05/06 12:17:36;;;;;;;5.35;1.10;;;27.10;63.10;;;;;;5049693;28;20395;-65
2021/05/06 12:20:54;;;;;;;6.82;1.48;;;27.40;62.50;;;;;;5049588;28;20268;-67
2021/05/06 12:23:59;;;;;;;8.13;1.85;;;26.60;63.30;;;;;;5051200;28;20044;-65
2021/05/06 12:27:26;;;;;;;6.00;1.35;;;26.50;65.90;;;;;;5051161;28;20068;-66
2021/05/06 12:30:30;;;;;;;7.05;1.60;;;25.90;66.40;;;;;;5049451;28;20388;-65
2021/05/06 12:33:35;;;;;;;4.28;1.20;;;26.40;65.10;;;;;;5030973;28;20037;-66
2021/05/06 12:36:50;;;;;;;8.98;1.77;;;25.80;69.50;;;;;;5033285;28;20052;-67
2021/05/06 12:39:56;;;;;;;7.00;1.35;;;26.00;69.60;;;;;;5049586;28;20511;-68
2021/05/06 12:43:17;;;;;;;7.90;1.65;;;25.40;68.40;;;;;;5031091;28;20048;-64
2021/05/06 12:46:27;;;;;;;9.68;1.88;;;25.40;71.10;;;;;;5044497;28;20040;-64
2021/05/06 12:49:30;;;;;;;4.13;1.25;;;25.30;67.70;;;;;;5050884;28;20052;-65
2021/05/06 12:52:37;;;;;;;9.63;1.40;;;24.70;70.90;;;;;;5050736;28;20040;-66
2021/05/06 12:55:42;;;;;;;8.55;1.88;;;23.80;69.30;;;;;;5030551;28;20500;-65
2021/05/06 12:58:46;;;;;;;6.18;1.15;;;23.70;71.00;;;;;;5030653;28;20048;-65
2021/05/06 13:01:51;;;;;;;9.15;1.77;;;23.20;70.20;;;;;;5030039;28;20041;-66
2021/05/06 13:04:55;;;;;;;6.60;1.10;;;22.90;70.40;;;;;;5030515;28;20392;-65
2021/05/06 13:08:00;;;;;;;4.88;1.15;;;23.20;70.40;;;;;;5031025;28;20571;-68
2021/05/06 13:11:11;;;;;;;5.88;1.25;;;24.20;71.30;;;;;;5049069;28;20048;-65
2021/05/06 13:14:15;;;;;;;3.83;1.10;;;23.20;68.40;;;;;;5049717;28;20059;-66
2021/05/06 13:17:27;;;;;;;6.25;1.30;;;22.20;69.70;;;;;;5050444;28;20048;-64
2021/05/06 13:20:31;;;;;;;7.93;1.02;;;22.60;70.20;;;;;;5050194;28;20040;-65
2021/05/06 13:23:36;;;;;;;6.32;1.30;;;21.90;69.40;;;;;;5050268;28;20044;-65
2021/05/06 13:26:42;;;;;;;6.15;1.02;;;22.00;69.70;;;;;;5050311;28;20055;-66
2021/05/06 13:29:59;;;;;;;5.53;0.90;;;21.40;70.10;;;;;;5049479;28;20475;-66
2021/05/06 13:33:21;;;;;;;3.72;0.82;;;21.20;71.20;;;;;;5049907;28;20108;-64
2021/05/06 13:36:28;;;;;;;4.13;0.80;;;21.40;69.20;;;;;;5049811;28;20502;-64
2021/05/06 13:39:33;;;;;;;2.30;0.90;;;21.40;70.40;;;;;;5049661;28;20059;-66
2021/05/06 13:42:38;;;;;;;7.97;1.00;;;22.70;70.50;;;;;;5048733;28;20040;-66
2021/05/06 13:45:42;;;;;;;3.95;1.38;;;23.60;68.40;;;;;;5036480;28;20044;-68
2021/05/06 13:48:46;;;;;;;5.43;1.05;;;23.60;72.00;;;;;;5029768;28;20054;-67
2021/05/06 13:51:52;;;;;;;8.30;1.00;;;24.00;70.10;;;;;;5028771;28;20506;-64
2021/05/06 13:54:58;;;;;;;7.00;1.23;;;23.70;70.70;;;;;;5029533;28;20040;-65
2021/05/06 13:58:02;;;;;;;3.33;0.90;;;23.70;72.40;;;;;;5029740;28;20040;-67
2021/05/06 14:01:09;;;;;;;8.55;1.10;;;23.80;70.60;;;;;;5028677;28;20041;-65
2021/05/06 14:04:13;;;;;;;4.22;0.88;;;22.70;69.50;;;;;;5029881;28;20392;-65
2021/05/06 14:07:17;;;;;;;5.75;1.08;;;22.80;71.10;;;;;;5029939;28;20057;-66
2021/05/06 14:10:22;;;;;;;6.25;0.80;;;22.90;70.90;;;;;;5029338;28;20095;-65
2021/05/06 14:13:27;;;;;;;5.53;1.25;;;22.50;71.80;;;;;;5029872;28;20394;-66
2021/05/06 14:16:31;;;;;;;4.30;0.82;;;22.20;72.30;;;;;;5028976;28;20408;-66
2021/05/06 14:19:35;;;;;;;2.50;0.93;;;22.10;71.40;;;;;;5029745;28;20056;-63
2021/05/06 14:22:39;;;;;;;7.38;1.70;;;22.30;72.10;;;;;;5029616;28;20036;-65
2021/05/06 14:25:46;;;;;;;6.78;1.20;;;22.60;73.50;;;;;;5028962;28;20054;-66
2021/05/06 14:28:49;;;;;;;6.32;1.02;;;22.50;74.30;;;;;;5029708;28;20048;-67
2021/05/06 14:31:53;;;;;;;7.75;1.33;;;21.80;75.20;;;;;;5036344;28;20040;-66
2021/05/06 14:34:57;;;;;;;7.78;0.93;;;21.50;74.80;;;;;;5049094;28;20052;-66
2021/05/06 14:38:02;;;;;;;4.57;1.25;;;20.60;75.80;;;;;;5049575;28;20060;-65
2021/05/06 14:41:07;;;;;;;5.05;1.00;;;20.90;77.30;;;;;;5048918;28;20052;-66
2021/05/06 14:44:11;;;;;;;3.53;1.40;;;21.60;77.40;;;;;;5048702;28;20039;-66
2021/05/06 14:47:15;;;;;;;3.33;1.00;;;22.00;75.70;;;;;;5029195;28;20408;-65
2021/05/06 14:50:19;;;;;;;5.05;1.30;;;21.50;75.40;;;;;;5027466;28;20045;-66
2021/05/06 14:53:24;;;;;;;7.63;0.90;;;21.90;76.90;;;;;;5030418;28;20040;-66
2021/05/06 14:56:28;;;;;;;7.78;1.30;;;22.10;78.00;;;;;;5032372;28;20041;-66
2021/05/06 14:59:32;;;;;;;5.90;1.30;;;22.00;75.80;;;;;;5031717;28;20048;-65
2021/05/06 15:02:36;;;;;;;7.32;1.30;;;21.90;76.40;;;;;;5032940;28;20041;-66
2021/05/06 15:05:41;;;;;;;5.95;1.10;;;21.90;78.00;;;;;;5032528;28;20049;-66
2021/05/06 15:08:46;;;;;;;5.07;1.20;;;21.90;76.90;;;;;;5032629;28;20554;-65
2021/05/06 15:11:50;;;;;;;5.70;1.35;;;21.80;77.90;;;;;;5032506;28;20048;-67
2021/05/06 15:14:54;;;;;;;5.82;1.25;;;21.90;78.10;;;;;;5031897;28;20400;-67
2021/05/06 15:17:59;;;;;;;7.60;1.25;;;21.50;77.90;;;;;;5032396;28;20514;-68
2021/05/06 15:21:04;;;;;;;4.50;1.05;;;21.60;78.20;;;;;;5032492;28;20071;-66
2021/05/06 15:24:08;;;;;;;5.43;1.20;;;21.40;76.70;;;;;;5032377;28;20053;-67
2021/05/06 15:27:13;;;;;;;7.75;1.30;;;21.00;78.40;;;;;;5032041;28;20044;-67
2021/05/06 15:30:20;;;;;;;5.38;1.25;;;20.90;78.80;;;;;;5031312;28;20056;-68
2021/05/06 15:33:24;;;;;;;5.28;1.10;;;20.20;78.50;;;;;;5032386;28;20049;-67
2021/05/06 15:36:30;;;;;;;10.57;1.50;;;20.10;82.40;;;;;;5032082;28;20113;-66
2021/05/06 15:39:35;;;;;;;11.02;1.33;;;20.40;79.70;;;;;;5031561;28;20052;-65
2021/05/06 15:42:39;;;;;;;7.20;1.05;;;20.20;80.80;;;;;;5032304;28;20052;-67
2021/05/06 15:45:43;;;;;;;9.50;1.50;;;19.90;80.90;;;;;;5043334;28;20583;-65
2021/05/06 15:48:47;;;;;;;6.20;1.30;;;20.10;81.90;;;;;;5052051;28;20052;-64
2021/05/06 15:51:51;;;;;;;4.10;1.20;;;20.00;79.90;;;;;;5051651;28;20070;-66
2021/05/06 15:54:55;;;;;;;4.07;1.30;;;20.40;81.80;;;;;;5032097;28;20053;-64
2021/05/06 15:58:02;;;;;;;2.95;1.60;;;20.50;80.00;;;;;;5031356;28;20041;-66
2021/05/06 16:01:07;;;;;;;5.95;1.17;;;20.40;79.20;;;;;;5030952;28;20048;-68
2021/05/06 16:04:11;;;;;;;10.75;1.63;;;20.00;79.80;;;;;;5031313;28;20658;-66
2021/05/06 16:07:16;;;;;;;4.78;0.95;;;20.10;81.10;;;;;;5031225;28;20036;-66
2021/05/06 16:10:24;;;;;;;3.45;1.20;;;20.40;80.80;;;;;;5031318;28;20238;-67
2021/05/06 16:13:28;;;;;;;7.68;1.67;;;20.20;80.00;;;;;;5031397;28;20049;-65
2021/05/06 16:16:32;;;;;;;4.85;1.00;;;19.50;80.80;;;;;;5030258;28;20499;-67
2021/05/06 16:19:37;;;;;;;5.38;1.40;;;19.70;82.90;;;;;;5031112;28;20500;-66
2021/05/06 16:22:43;;;;;;;3.95;0.98;;;19.80;83.70;;;;;;5031093;28;20032;-68
2021/05/06 16:25:48;;;;;;;6.20;1.27;;;19.90;80.60;;;;;;5030601;28;20048;-67
2021/05/06 16:28:52;;;;;;;3.20;1.13;;;20.00;80.40;;;;;;5030174;28;20511;-66
2021/05/06 16:31:55;;;;;;;3.75;1.25;;;20.20;81.60;;;;;;5038193;28;20103;-67
2021/05/06 16:35:01;;;;;;;5.63;1.42;;;20.30;82.60;;;;;;5050829;28;20590;-68
2021/05/06 16:38:11;;;;;;;7.07;1.10;;;20.30;80.70;;;;;;5050640;28;20048;-67
2021/05/06 16:41:15;;;;;;;5.07;0.90;;;19.70;82.60;;;;;;5050271;28;20044;-65
2021/05/06 16:47:32;;;;;;;3.60;1.00;;;19.50;82.20;;;;;;5050878;28;20034;-67
2021/05/06 16:50:42;;;;;;;4.70;1.10;;;19.40;83.10;;;;;;5050560;28;20095;-66
2021/05/06 16:53:49;;;;;;;7.30;1.42;;;19.60;84.70;;;;;;5050902;28;20056;-67
2021/05/06 16:56:54;;;;;;;3.40;1.20;;;19.60;83.50;;;;;;5050842;28;20044;-66
2021/05/06 16:59:58;;;;;;;5.57;1.30;;;19.70;83.00;;;;;;5049380;28;20055;-66
2021/05/06 17:03:04;;;;;;;3.75;1.63;;;19.80;83.60;;;;;;5051090;28;20052;-67
2021/05/06 17:06:09;;;;;;;4.80;1.30;;;19.90;83.20;;;;;;5050315;28;20043;-66
2021/05/06 17:09:13;;;;;;;2.67;0.85;;;20.00;83.00;;;;;;5050341;28;20048;-68
2021/05/06 17:12:17;;;;;;;4.68;0.95;;;20.00;82.40;;;;;;5050478;28;20586;-67
2021/05/06 17:15:22;;;;;;;3.17;1.08;;;20.10;81.90;;;;;;5049502;28;20124;-67
2021/05/06 17:18:29;;;;;;;4.30;0.82;;;19.80;82.80;;;;;;5050299;28;20067;-67
2021/05/06 17:21:33;;;;;;;2.55;0.75;;;19.60;82.90;;;;;;5050316;28;20416;-67
2021/05/06 17:24:38;;;;;;;7.10;1.10;;;19.30;82.50;;;;;;5050228;28;20059;-66
2021/05/06 17:27:42;;;;;;;2.90;0.90;;;19.20;84.30;;;;;;5049965;28;20047;-66
2021/05/06 17:30:47;;;;;;;5.88;1.00;;;19.10;84.40;;;;;;5049252;28;20040;-67
2021/05/06 17:33:51;;;;;;;3.72;0.82;;;19.00;84.30;;;;;;5050153;28;20415;-66
2021/05/06 17:36:57;;;;;;;4.97;0.90;;;18.80;83.80;;;;;;5044199;28;20049;-67
2021/05/06 17:40:01;;;;;;;5.97;1.00;;;18.70;85.30;;;;;;5048914;28;20039;-67
2021/05/06 17:43:06;;;;;;;5.50;1.00;;;18.60;85.50;;;;;;5030220;28;20040;-66
2021/05/06 17:46:11;;;;;;;2.55;0.75;;;18.50;86.50;;;;;;5041078;28;20035;-66
2021/05/06 17:49:15;;;;;;;5.43;0.98;;;18.40;87.10;;;;;;5050014;28;20514;-66
2021/05/06 17:52:19;;;;;;;5.28;1.48;;;18.20;86.50;;;;;;5049101;28;20431;-66
2021/05/06 17:55:23;;;;;;;3.90;1.70;;;18.10;88.10;;;;;;5047989;28;20047;-67
2021/05/06 17:58:28;;;;;;;5.13;0.85;;;18.00;89.10;;;;;;5048974;28;20063;-67
2021/05/06 18:01:32;;;;;;;4.95;0.90;;;17.80;88.80;;;;;;5048228;28;20040;-67
2021/05/06 18:04:36;;;;;;;3.67;1.08;;;17.70;89.60;;;;;;5049252;28;20040;-67
2021/05/06 18:07:41;;;;;;;8.73;1.05;;;17.60;90.10;;;;;;5049400;28;20069;-67
2021/05/06 18:10:49;;;;;;;4.72;1.23;;;17.40;90.30;;;;;;5043460;28;20048;-66
2021/05/06 18:13:56;;;;;;;7.63;1.25;;;17.20;91.00;;;;;;5040761;28;20036;-66
2021/05/06 18:17:01;;;;;;;5.57;1.00;;;17.10;91.40;;;;;;5045015;28;20041;-67
2021/05/06 18:20:07;;;;;;;9.50;1.85;;;16.90;91.60;;;;;;5037882;28;20037;-66
2021/05/06 18:23:11;;;;;;;5.22;1.02;;;16.80;92.20;;;;;;5044735;28;20038;-66
2021/05/06 18:26:18;;;;;;;13.90;1.55;;;16.70;92.70;;;;;;5037978;28;20044;-66
2021/05/06 18:29:24;;;;;;;3.90;1.20;;;16.50;93.20;;;;;;5041774;28;20056;-66
2021/05/06 18:32:28;;;;;;;8.23;1.17;;;16.50;93.50;;;;;;5041133;28;20047;-66
2021/05/06 18:35:33;;;;;;;7.10;1.25;;;16.30;93.90;;;;;;5021607;28;20051;-66
2021/05/06 18:38:40;;;;;;;5.72;1.40;;;16.20;95.10;;;;;;5022350;28;20047;-66
2021/05/06 18:41:46;;;;;;;12.15;2.70;;;16.10;94.80;;;;;;5016623;28;20064;-66
2021/05/06 18:44:50;;;;;;;6.65;2.50;;;16.00;96.90;;;;;;5041320;28;20040;-65
2021/05/06 18:47:55;;;;;;;8.02;2.95;;;16.00;98.30;;;;;;5009546;28;20053;-65
2021/05/06 18:51:00;;;;;;;8.98;3.10;;;15.90;96.40;;;;;;5017475;28;20068;-66
2021/05/06 18:54:09;;;;;;;10.18;3.53;;;15.80;96.70;;;;;;5030866;28;20506;-66
2021/05/06 18:57:14;;;;;;;8.05;3.20;;;15.80;96.80;;;;;;5026542;28;20411;-65
2021/05/06 19:00:20;;;;;;;12.80;4.15;;;15.80;96.80;;;;;;5026241;28;20044;-65
2021/05/06 19:03:25;;;;;;;9.70;4.13;;;15.80;97.10;;;;;;5032598;28;20047;-67
2021/05/06 19:06:29;;;;;;;8.65;3.30;;;15.70;97.40;;;;;;5025402;28;20217;-66
2021/05/06 19:09:33;;;;;;;4.32;2.30;;;15.60;97.90;;;;;;5031818;28;20044;-66
2021/05/06 19:12:39;;;;;;;6.00;2.30;;;15.60;97.60;;;;;;5031024;28;20396;-66
2021/05/06 19:15:43;;;;;;;5.18;1.90;;;15.50;97.70;;;;;;5018473;28;20487;-66